Jask, Iran
Current Conditions -  °F | °C
As of 12:00 AM on Monday 24 Nov 2014 (Local Time) from OIZJ Reporting Station
Clear Clear  
Wind Chill: 24°   Ceiling: Unl
Heat Index: 24°   Visibility: 5mi
Dew Point: 19°   Wind: 2mph
Humidity: 73%   Direction: 300°WNW
Pressure: 29.88"   Gusts: NA
Location:  25.65°N, 57.78°E
Report Text: OIZJ 232100Z 30002KT 8000 SKC 24/19 Q1012
Loading
Personal Weather Stations






























Interactive Weather Map New forecast layout! Learn more

10-Day Weather Forecast

Advertisements
Track Severe Weather on mobile